Time;durP1;ratioP1;P1;durP2;ratioP2;P2;SDS_P1;SDS_P2;PMS_P1;PMS_P2;Temp;Humidity;BMP_temperature;BMP_pressure;BME280_temperature;BME280_humidity;BME280_pressure;Samples;Min_cycle;Max_cycle;Signal;HPM_P1;HPM_P2
2021/12/03 00:00:22;;;;;;;8.25;4.35;;;;;;;-1.59;82.21;93182.19;4915921;29;20056;-70
2021/12/03 00:02:49;;;;;;;8.93;4.07;;;;;;;-1.42;81.59;93189.81;4916437;29;20047;-70
2021/12/03 00:05:16;;;;;;;8.52;4.30;;;;;;;-1.31;81.67;93195.41;4915668;29;20273;-70
2021/12/03 00:07:43;;;;;;;8.15;4.03;;;;;;;-1.34;81.10;93204.19;4915970;29;20501;-70
2021/12/03 00:10:13;;;;;;;8.73;4.25;;;;;;;-1.25;80.62;93202.03;4915689;29;20058;-70
2021/12/03 00:12:40;;;;;;;7.93;3.97;;;;;;;-1.11;80.93;93203.41;4916123;29;20052;-70
2021/12/03 00:15:11;;;;;;;8.13;4.03;;;;;;;-1.24;80.70;93203.59;4916117;29;20054;-70
2021/12/03 00:17:38;;;;;;;9.43;4.13;;;;;;;-1.32;81.06;93215.38;4916038;29;20054;-70
2021/12/03 00:20:09;;;;;;;7.78;3.60;;;;;;;-1.32;81.09;93209.22;4915602;29;20048;-70
2021/12/03 00:22:36;;;;;;;8.00;3.97;;;;;;;-1.35;81.43;93208.00;4916143;29;20054;-70
2021/12/03 00:25:03;;;;;;;9.60;3.90;;;;;;;-1.38;81.09;93216.03;4915840;29;20046;-70
2021/12/03 00:27:30;;;;;;;6.77;3.50;;;;;;;-1.55;81.46;93209.97;4915784;29;20040;-70
2021/12/03 00:29:56;;;;;;;7.03;3.63;;;;;;;-1.37;81.27;93209.50;4915706;29;20052;-70
2021/12/03 00:32:23;;;;;;;6.53;3.50;;;;;;;-1.45;80.76;93211.28;4916268;29;20056;-71
2021/12/03 00:34:50;;;;;;;7.75;3.58;;;;;;;-1.39;80.39;93228.69;4915374;29;20760;-69
2021/12/03 00:37:17;;;;;;;6.97;3.42;;;;;;;-1.42;80.38;93237.47;4916156;29;20036;-71
2021/12/03 00:39:44;;;;;;;5.90;3.50;;;;;;;-1.49;80.30;93240.03;4915551;29;20044;-70
2021/12/03 00:42:15;;;;;;;7.60;3.40;;;;;;;-1.53;80.50;93248.06;4915480;29;20161;-70
2021/12/03 00:44:44;;;;;;;7.20;3.20;;;;;;;-1.57;80.46;93257.97;4915605;29;20054;-71
2021/12/03 00:47:11;;;;;;;7.40;3.85;;;;;;;-1.72;80.64;93254.19;4897800;29;20057;-72
2021/12/03 00:49:39;;;;;;;6.40;3.28;;;;;;;-1.72;80.30;93262.28;4896586;29;20045;-71
2021/12/03 00:52:06;;;;;;;7.00;3.00;;;;;;;-1.84;80.52;93267.78;4896290;29;20049;-71
2021/12/03 00:54:33;;;;;;;6.65;3.33;;;;;;;-2.16;81.95;93269.81;4896564;29;20044;-72
2021/12/03 00:57:01;;;;;;;10.07;4.22;;;;;;;-2.13;82.47;93274.47;4896252;29;20057;-71
2021/12/03 00:59:27;;;;;;;10.50;4.90;;;;;;;-2.17;83.16;93295.09;4896987;29;20054;-71
2021/12/03 01:01:55;;;;;;;11.27;5.00;;;;;;;-2.17;83.77;93290.53;4910030;29;20075;-71
2021/12/03 01:04:22;;;;;;;9.47;4.40;;;;;;;-2.43;86.18;93297.25;4896963;29;20045;-71
2021/12/03 01:06:49;;;;;;;11.88;5.32;;;;;;;-2.52;87.30;93304.69;4910685;29;20044;-71
2021/12/03 01:09:16;;;;;;;11.45;5.72;;;;;;;-2.53;87.20;93308.53;4895537;29;21879;-71
2021/12/03 01:11:43;;;;;;;10.82;5.32;;;;;;;-2.66;87.15;93315.88;4896385;29;20059;-71
2021/12/03 01:14:10;;;;;;;9.85;5.07;;;;;;;-2.64;87.08;93326.28;4896092;29;20052;-71
2021/12/03 01:16:37;;;;;;;9.90;4.77;;;;;;;-2.55;87.08;93336.88;4896407;29;20036;-71
2021/12/03 01:19:04;;;;;;;10.65;4.70;;;;;;;-2.50;85.75;93329.31;4895956;29;20067;-71
2021/12/03 01:21:31;;;;;;;9.55;4.50;;;;;;;-2.56;85.64;93328.00;4910349;29;20062;-71
2021/12/03 01:23:57;;;;;;;8.50;4.00;;;;;;;-2.64;85.79;93337.78;4895207;29;20067;-70
2021/12/03 01:26:24;;;;;;;10.30;4.85;;;;;;;-2.68;86.01;93344.22;4896590;29;20054;-71
2021/12/03 01:28:51;;;;;;;9.43;4.10;;;;;;;-2.64;85.83;93345.84;4895629;29;20057;-70
2021/12/03 01:31:18;;;;;;;7.57;3.75;;;;;;;-2.65;86.40;93351.59;4896326;29;20047;-71
2021/12/03 01:33:47;;;;;;;7.72;3.63;;;;;;;-2.54;86.19;93354.53;4894604;29;20079;-71
2021/12/03 01:36:14;;;;;;;8.18;3.33;;;;;;;-2.48;85.74;93353.13;4895541;29;20052;-70
2021/12/03 01:38:42;;;;;;;8.55;3.80;;;;;;;-2.46;85.76;93351.66;4895658;29;20059;-71
2021/12/03 01:41:09;;;;;;;6.93;3.47;;;;;;;-2.43;85.41;93356.34;4895605;29;20405;-70
2021/12/03 01:43:36;;;;;;;9.38;3.72;;;;;;;-2.46;85.26;93348.19;4895715;29;20056;-71
2021/12/03 01:46:06;;;;;;;12.45;4.85;;;;;;;-2.70;85.69;93351.81;4902767;29;20054;-70
2021/12/03 01:48:35;;;;;;;22.33;7.18;;;;;;;-2.76;86.37;93359.34;4914388;29;20040;-71
2021/12/03 01:51:04;;;;;;;16.95;5.63;;;;;;;-2.72;86.03;93360.22;4914176;29;20052;-71
2021/12/03 01:53:33;;;;;;;12.07;5.23;;;;;;;-2.59;86.27;93369.00;4914735;29;20050;-71
2021/12/03 01:56:04;;;;;;;8.35;4.30;;;;;;;-2.60;86.15;93367.44;4914132;29;20075;-71
2021/12/03 01:58:31;;;;;;;6.82;3.58;;;;;;;-2.57;85.76;93371.34;4914461;29;20056;-71
2021/12/03 02:01:04;;;;;;;7.80;3.40;;;;;;;-2.63;85.50;93360.84;4913860;29;20040;-71
2021/12/03 02:03:35;;;;;;;7.63;3.40;;;;;;;-2.59;85.43;93357.50;4914556;29;20072;-71
2021/12/03 02:06:03;;;;;;;9.07;3.87;;;;;;;-2.58;85.57;93361.72;4928590;29;20070;-71
2021/12/03 02:08:30;;;;;;;6.88;3.60;;;;;;;-2.56;85.78;93356.78;4914018;29;20052;-71
2021/12/03 02:10:57;;;;;;;7.95;3.75;;;;;;;-2.66;85.54;93368.81;4912292;29;20064;-70
2021/12/03 02:13:24;;;;;;;7.03;3.47;;;;;;;-2.63;86.02;93363.53;4913719;29;20044;-70
2021/12/03 02:15:51;;;;;;;7.40;3.13;;;;;;;-2.49;85.77;93365.03;4913180;29;20052;-70
2021/12/03 02:18:19;;;;;;;8.13;3.67;;;;;;;-2.49;85.11;93371.19;4914315;29;20048;-71
2021/12/03 02:20:50;;;;;;;7.30;3.90;;;;;;;-2.36;85.32;93365.72;4913752;29;20051;-70
2021/12/03 02:23:18;;;;;;;7.55;3.47;;;;;;;-2.24;85.10;93361.00;4913276;29;20927;-70
2021/12/03 02:25:45;;;;;;;12.13;4.60;;;;;;;-2.14;84.67;93367.78;4913678;29;20071;-71
2021/12/03 02:28:13;;;;;;;12.80;5.97;;;;;;;-2.10;84.43;93365.19;4913632;29;20524;-70
2021/12/03 02:30:41;;;;;;;14.60;5.47;;;;;;;-2.02;84.26;93373.03;4913842;29;20036;-71
2021/12/03 02:33:08;;;;;;;13.10;5.13;;;;;;;-1.98;84.17;93372.38;4913529;29;20048;-72
2021/12/03 02:35:37;;;;;;;10.23;4.38;;;;;;;-2.02;84.61;93374.97;4913746;29;20051;-70
2021/12/03 02:38:04;;;;;;;7.40;3.67;;;;;;;-2.01;84.49;93382.69;4913218;29;20378;-70
2021/12/03 02:40:31;;;;;;;8.88;3.63;;;;;;;-2.05;84.64;93379.13;4912553;29;20052;-70
2021/12/03 02:42:58;;;;;;;8.13;3.80;;;;;;;-1.94;84.50;93379.38;4913215;29;20052;-70
2021/12/03 02:45:25;;;;;;;7.82;3.72;;;;;;;-2.08;84.78;93385.19;4910720;29;20406;-71
2021/12/03 02:47:52;;;;;;;9.45;4.38;;;;;;;-2.25;84.58;93380.97;4894015;29;20054;-70
2021/12/03 02:50:19;;;;;;;8.75;4.00;;;;;;;-2.23;84.58;93383.31;4894654;29;20471;-71
2021/12/03 02:52:49;;;;;;;6.90;3.67;;;;;;;-2.39;85.80;93386.00;4894402;29;20071;-71
2021/12/03 02:55:16;;;;;;;8.67;3.87;;;;;;;-2.38;86.08;93384.09;4893987;29;21828;-71
2021/12/03 02:57:43;;;;;;;8.10;4.00;;;;;;;-2.21;85.73;93379.16;4894309;29;20049;-71
2021/12/03 03:00:14;;;;;;;9.25;4.10;;;;;;;-2.01;85.29;93389.97;4908692;29;20052;-71
2021/12/03 03:02:42;;;;;;;8.38;4.18;;;;;;;-1.93;84.99;93396.28;4894198;29;20060;-71
2021/12/03 03:05:10;;;;;;;9.65;4.43;;;;;;;-1.83;84.56;93388.47;4894203;29;20099;-71
2021/12/03 03:07:38;;;;;;;9.60;4.53;;;;;;;-1.76;84.19;93393.22;4893987;29;20500;-71
2021/12/03 03:10:09;;;;;;;9.73;4.20;;;;;;;-1.68;84.44;93394.16;4894227;29;20064;-71
2021/12/03 03:12:37;;;;;;;8.57;4.20;;;;;;;-1.65;84.17;93386.19;4908514;29;20053;-71
2021/12/03 03:15:06;;;;;;;9.57;4.32;;;;;;;-1.62;84.04;93396.22;4894074;29;20044;-71
2021/12/03 03:17:33;;;;;;;9.38;4.95;;;;;;;-1.61;84.22;93392.41;4894608;29;20051;-71
2021/12/03 03:20:01;;;;;;;9.53;4.67;;;;;;;-1.54;84.10;93383.72;4893567;29;20044;-71
2021/12/03 03:22:29;;;;;;;9.10;5.00;;;;;;;-1.53;83.68;93393.34;4894423;29;20043;-71
2021/12/03 03:24:59;;;;;;;10.15;5.10;;;;;;;-1.64;83.97;93395.03;4893311;29;20041;-71
2021/12/03 03:27:29;;;;;;;9.80;4.60;;;;;;;-1.57;84.29;93392.50;4894376;29;20049;-71
2021/12/03 03:29:57;;;;;;;8.73;4.35;;;;;;;-1.67;84.08;93391.13;4893532;29;20045;-70
2021/12/03 03:32:24;;;;;;;8.97;4.53;;;;;;;-1.65;84.15;93399.63;4894312;29;20076;-71
2021/12/03 03:34:51;;;;;;;9.35;4.70;;;;;;;-1.65;84.48;93405.00;4893670;29;20056;-71
2021/12/03 03:37:18;;;;;;;9.90;5.07;;;;;;;-1.58;83.92;93406.31;4894373;29;20063;-71
2021/12/03 03:39:46;;;;;;;9.98;4.88;;;;;;;-1.58;84.07;93407.06;4893809;29;20095;-71
2021/12/03 03:42:14;;;;;;;14.15;6.80;;;;;;;-1.54;83.90;93409.84;4893704;29;20406;-71
2021/12/03 03:44:41;;;;;;;13.07;6.20;;;;;;;-1.67;83.75;93411.84;4893854;29;20059;-71
2021/12/03 03:47:09;;;;;;;11.02;5.50;;;;;;;-1.87;84.50;93411.03;4909450;29;20048;-72
2021/12/03 03:49:36;;;;;;;12.77;5.50;;;;;;;-1.83;84.48;93414.59;4912983;29;20036;-71
2021/12/03 03:52:04;;;;;;;17.52;7.60;;;;;;;-2.12;86.06;93418.50;4912303;29;20048;-72
2021/12/03 03:54:32;;;;;;;14.43;6.72;;;;;;;-1.99;85.71;93425.38;4913038;29;20056;-71
2021/12/03 03:57:00;;;;;;;14.63;6.80;;;;;;;-1.86;85.80;93424.13;4912498;29;20040;-71
2021/12/03 03:59:27;;;;;;;13.32;6.45;;;;;;;-1.82;85.55;93424.97;4912983;29;20496;-71
2021/12/03 04:01:54;;;;;;;12.55;6.20;;;;;;;-1.71;85.27;93429.81;4912203;29;20055;-71
2021/12/03 04:04:21;;;;;;;11.88;5.93;;;;;;;-1.64;85.21;93427.31;4912993;29;20070;-71
2021/12/03 04:06:50;;;;;;;12.82;6.15;;;;;;;-1.62;85.33;93433.91;4912646;29;20048;-71
2021/12/03 04:09:16;;;;;;;12.70;6.27;;;;;;;-1.76;84.81;93432.81;4911698;29;20127;-71
2021/12/03 04:11:43;;;;;;;11.80;5.60;;;;;;;-1.97;85.78;93438.44;4912572;29;20040;-71
2021/12/03 04:14:11;;;;;;;14.93;6.72;;;;;;;-1.90;86.12;93446.69;4912307;29;20076;-71
2021/12/03 04:16:38;;;;;;;15.85;7.10;;;;;;;-2.04;86.39;93445.22;4911310;29;20055;-71
2021/12/03 04:19:06;;;;;;;15.10;6.75;;;;;;;-2.22;87.12;93452.06;4912022;29;20048;-71
2021/12/03 04:21:32;;;;;;;14.73;6.50;;;;;;;-2.21;87.29;93457.09;4911363;29;20048;-71
2021/12/03 04:23:59;;;;;;;12.45;5.90;;;;;;;-2.16;87.30;93450.69;4911881;29;20449;-71
2021/12/03 04:26:26;;;;;;;11.93;5.65;;;;;;;-1.95;86.94;93450.44;4912689;29;20066;-71
2021/12/03 04:28:53;;;;;;;10.98;5.60;;;;;;;-1.97;86.68;93451.88;4911869;29;20051;-71
2021/12/03 04:31:20;;;;;;;11.43;5.50;;;;;;;-1.94;86.50;93460.03;4912511;29;20048;-71
2021/12/03 04:33:47;;;;;;;13.37;5.80;;;;;;;-1.88;86.63;93455.97;4912259;29;20067;-71
2021/12/03 04:36:13;;;;;;;12.95;5.88;;;;;;;-1.79;86.33;93468.44;4912178;29;20046;-72
2021/12/03 04:38:40;;;;;;;11.60;5.50;;;;;;;-1.95;86.82;93476.53;4915268;29;20050;-71
2021/12/03 04:41:07;;;;;;;11.80;6.07;;;;;;;-1.97;87.22;93484.97;4915401;29;20051;-71
2021/12/03 04:43:34;;;;;;;11.57;5.20;;;;;;;-1.86;86.79;93477.13;4915642;29;20052;-72
2021/12/03 04:46:01;;;;;;;10.13;4.70;;;;;;;-2.10;87.22;93484.25;4907856;29;20850;-71
2021/12/03 04:48:29;;;;;;;9.50;4.80;;;;;;;-2.02;87.20;93491.34;4896842;29;20056;-71
2021/12/03 04:50:56;;;;;;;26.20;11.70;;;;;;;-1.97;86.78;93492.22;4896076;29;20037;-71
2021/12/03 04:53:25;;;;;;;13.55;6.25;;;;;;;-2.01;86.33;93492.94;4896979;29;20062;-71
2021/12/03 04:55:52;;;;;;;10.45;5.20;;;;;;;-1.90;83.75;93495.09;4895860;29;20055;-71
2021/12/03 04:58:19;;;;;;;10.30;4.67;;;;;;;-1.86;83.22;93490.59;4896997;29;20044;-71
2021/12/03 05:00:52;;;;;;;9.23;4.65;;;;;;;-1.82;81.96;93499.53;4895177;29;20041;-72
2021/12/03 05:03:24;;;;;;;15.73;6.97;;;;;;;-1.90;82.43;93495.88;4895744;29;20908;-71
2021/12/03 05:05:56;;;;;;;36.20;17.33;;;;;;;-1.96;82.97;93508.00;4896000;29;20043;-71
2021/12/03 05:08:25;;;;;;;12.35;6.35;;;;;;;-2.18;82.88;93511.28;4896304;29;20058;-71
2021/12/03 05:10:53;;;;;;;12.83;6.00;;;;;;;-2.15;82.57;93505.22;4895850;29;20044;-71
2021/12/03 05:13:29;;;;;;;13.27;6.15;;;;;;;-2.17;82.91;93505.59;4896300;29;20055;-71
2021/12/03 05:15:57;;;;;;;11.13;4.88;;;;;;;-2.14;83.00;93515.63;4895938;29;20360;-71
2021/12/03 05:18:26;;;;;;;10.70;4.93;;;;;;;-2.14;82.29;93509.47;4896277;29;20050;-71
2021/12/03 05:20:56;;;;;;;14.35;8.50;;;;;;;-2.18;82.61;93509.38;4895396;29;20047;-71
2021/12/03 05:23:24;;;;;;;14.57;7.00;;;;;;;-2.08;82.79;93516.94;4895225;29;20383;-71
2021/12/03 05:25:52;;;;;;;16.75;7.40;;;;;;;-2.15;83.01;93513.28;4895252;29;20409;-71
2021/12/03 05:28:19;;;;;;;16.40;8.02;;;;;;;-2.12;83.10;93507.22;4896377;29;20052;-71
2021/12/03 05:30:49;;;;;;;14.27;6.60;;;;;;;-2.09;83.28;93510.00;4896024;29;20057;-72
2021/12/03 05:33:16;;;;;;;10.77;5.70;;;;;;;-2.09;83.29;93498.47;4909806;29;20052;-71
2021/12/03 05:35:43;;;;;;;12.07;6.50;;;;;;;-2.10;83.08;93497.69;4895973;29;20501;-72
2021/12/03 05:38:10;;;;;;;13.07;6.85;;;;;;;-2.09;82.04;93501.94;4895357;29;20052;-71
2021/12/03 05:40:37;;;;;;;12.10;6.57;;;;;;;-2.09;81.47;93511.94;4896011;29;20037;-71
2021/12/03 05:43:05;;;;;;;15.70;9.15;;;;;;;-2.15;81.14;93503.31;4894985;29;20052;-71
2021/12/03 05:45:34;;;;;;;12.50;6.00;;;;;;;-2.17;81.33;93515.53;4899250;29;20048;-71
2021/12/03 05:48:01;;;;;;;10.23;5.10;;;;;;;-2.27;81.70;93514.91;4914061;29;20044;-71
2021/12/03 05:50:29;;;;;;;10.45;5.20;;;;;;;-2.36;81.66;93518.88;4914736;29;20493;-71
2021/12/03 05:52:57;;;;;;;10.88;4.40;;;;;;;-2.60;82.09;93533.97;4913595;29;20066;-71
2021/12/03 05:55:25;;;;;;;9.95;4.55;;;;;;;-2.66;82.55;93533.44;4914453;29;20052;-71
2021/12/03 05:57:52;;;;;;;23.70;11.27;;;;;;;-2.68;83.75;93541.06;4913705;29;20040;-70
2021/12/03 06:00:32;;;;;;;22.70;10.20;;;;;;;-2.83;84.26;93539.88;4912878;29;20433;-71
2021/12/03 06:02:59;;;;;;;10.68;5.45;;;;;;;-2.90;84.58;93538.88;4913439;29;20416;-71
2021/12/03 06:05:29;;;;;;;8.65;4.40;;;;;;;-3.02;84.48;93551.22;4912956;29;20040;-71
2021/12/03 06:07:57;;;;;;;8.82;3.90;;;;;;;-2.97;84.66;93554.81;4913169;29;20051;-71
2021/12/03 06:10:24;;;;;;;9.10;5.10;;;;;;;-2.90;84.18;93563.81;4914191;29;20048;-71
2021/12/03 06:12:51;;;;;;;10.67;4.93;;;;;;;-2.83;83.83;93563.25;4913441;29;20064;-71
2021/12/03 06:15:19;;;;;;;8.55;3.90;;;;;;;-2.84;84.18;93567.06;4928518;29;20067;-71
2021/12/03 06:17:46;;;;;;;9.23;4.70;;;;;;;-2.83;84.04;93571.31;4914066;29;20047;-71
2021/12/03 06:20:15;;;;;;;10.65;4.95;;;;;;;-2.79;84.46;93568.75;4913758;29;20044;-71
2021/12/03 06:22:41;;;;;;;10.23;3.88;;;;;;;-2.89;84.33;93576.13;4913771;29;20048;-71
2021/12/03 06:25:10;;;;;;;10.27;5.10;;;;;;;-2.85;84.23;93577.03;4913238;29;20054;-71
2021/12/03 06:27:39;;;;;;;10.50;5.25;;;;;;;-2.77;84.12;93582.63;4914076;29;20427;-71
2021/12/03 06:30:12;;;;;;;11.60;6.45;;;;;;;-2.79;83.93;93580.25;4913314;29;20054;-71
2021/12/03 06:32:40;;;;;;;11.30;5.82;;;;;;;-2.89;83.79;93586.88;4913653;29;20040;-71
2021/12/03 06:35:09;;;;;;;9.90;5.18;;;;;;;-2.77;83.82;93580.72;4913047;29;20040;-71
2021/12/03 06:37:36;;;;;;;15.87;6.43;;;;;;;-2.75;83.61;93581.16;4912484;29;20512;-71
2021/12/03 06:40:06;;;;;;;11.23;5.57;;;;;;;-2.77;84.14;93588.75;4912897;29;20047;-71
2021/12/03 06:42:33;;;;;;;11.25;5.82;;;;;;;-2.71;84.24;93586.63;4913543;29;20040;-71
2021/12/03 06:45:03;;;;;;;9.63;4.18;;;;;;;-2.92;84.78;93589.44;4912740;29;20040;-71
2021/12/03 06:47:31;;;;;;;10.27;5.03;;;;;;;-3.01;84.97;93589.59;4894805;29;20507;-71
2021/12/03 06:49:58;;;;;;;10.60;5.33;;;;;;;-3.02;84.87;93588.81;4893797;29;20052;-71
2021/12/03 06:52:25;;;;;;;10.55;4.90;;;;;;;-3.02;85.06;93588.81;4894483;29;20079;-71
2021/12/03 06:54:57;;;;;;;23.08;8.82;;;;;;;-3.07;84.90;93591.72;4894075;29;20051;-71
2021/12/03 06:57:24;;;;;;;27.92;10.88;;;;;;;-3.24;84.76;93598.09;4893194;29;20047;-71
2021/12/03 06:59:51;;;;;;;17.60;7.25;;;;;;;-3.26;84.25;93589.63;4892185;29;20055;-70
2021/12/03 07:02:18;;;;;;;62.57;18.30;;;;;;;-3.27;84.88;93593.41;4894537;29;20040;-71
2021/12/03 07:04:45;;;;;;;70.90;21.17;;;;;;;-3.34;83.91;93598.56;4894466;29;20049;-71
2021/12/03 07:07:12;;;;;;;35.50;13.32;;;;;;;-3.49;84.74;93604.59;4898718;29;20050;-71
2021/12/03 07:09:38;;;;;;;25.95;10.68;;;;;;;-3.49;84.67;93608.03;4913206;29;20040;-70
2021/12/03 07:12:06;;;;;;;12.57;6.65;;;;;;;-3.41;85.08;93611.75;4912335;29;20056;-70
2021/12/03 07:14:33;;;;;;;12.73;5.80;;;;;;;-3.29;84.32;93622.47;4913283;29;20051;-70
2021/12/03 07:16:59;;;;;;;11.93;5.50;;;;;;;-3.26;84.07;93627.19;4927113;29;20074;-70
2021/12/03 07:19:26;;;;;;;12.43;5.78;;;;;;;-3.18;83.60;93625.47;4913331;29;20044;-70
2021/12/03 07:21:53;;;;;;;13.20;5.68;;;;;;;-3.15;83.63;93616.78;4912711;29;20045;-70
2021/12/03 07:24:20;;;;;;;12.73;5.93;;;;;;;-3.18;83.16;93630.06;4912965;29;20048;-70
2021/12/03 07:26:46;;;;;;;14.47;6.30;;;;;;;-3.27;83.32;93622.16;4913074;29;20051;-71
2021/12/03 07:29:13;;;;;;;19.45;7.88;;;;;;;-3.28;83.36;93629.41;4912345;29;20046;-70
2021/12/03 07:31:40;;;;;;;15.77;6.20;;;;;;;-3.35;83.45;93634.53;4913015;29;20515;-70
2021/12/03 07:34:09;;;;;;;13.48;5.60;;;;;;;-3.36;83.20;93643.72;4909262;29;20056;-67
2021/12/03 07:36:35;;;;;;;13.05;5.65;;;;;;;-3.46;83.06;93625.34;4912942;29;20048;-69
2021/12/03 07:39:04;;;;;;;17.00;6.60;;;;;;;-3.39;83.39;93630.19;4912140;29;20048;-69
2021/12/03 07:41:31;;;;;;;14.05;5.72;;;;;;;-3.36;82.98;93638.34;4913142;29;20044;-69
2021/12/03 07:43:58;;;;;;;21.33;11.10;;;;;;;-3.53;83.32;93628.59;4910898;29;20044;-69
2021/12/03 07:46:25;;;;;;;11.73;6.07;;;;;;;-3.52;82.36;93627.50;4910191;29;20041;-68
2021/12/03 07:48:51;;;;;;;12.85;6.10;;;;;;;-3.51;82.81;93636.31;4912258;29;20048;-68
2021/12/03 07:51:18;;;;;;;13.13;6.17;;;;;;;-3.47;82.64;93626.50;4910861;29;20437;-70
2021/12/03 07:53:45;;;;;;;12.88;5.85;;;;;;;-3.42;83.03;93626.25;4901314;29;20404;-70
2021/12/03 07:56:12;;;;;;;17.42;8.02;;;;;;;-1.97;80.66;93642.81;4900144;29;20055;-70
2021/12/03 07:58:39;;;;;;;20.25;8.52;;;;;;;0.78;72.30;93634.63;4912593;29;20048;-70
2021/12/03 08:01:06;;;;;;;17.92;8.02;;;;;;;2.56;62.66;93632.00;4912122;29;20057;-70
2021/12/03 08:03:33;;;;;;;19.47;7.77;;;;;;;4.28;57.68;93618.09;4912464;29;20052;-71
2021/12/03 08:06:05;;;;;;;17.65;8.55;;;;;;;6.06;52.43;93624.81;4912164;29;20050;-70
2021/12/03 08:08:32;;;;;;;25.05;10.68;;;;;;;7.69;49.11;93620.72;4912539;29;20044;-70
2021/12/03 08:11:00;;;;;;;17.52;8.50;;;;;;;8.94;46.07;93626.00;4911987;29;20052;-71
2021/12/03 08:13:27;;;;;;;13.07;7.20;;;;;;;9.69;43.46;93624.84;4915716;29;20074;-70
2021/12/03 08:15:54;;;;;;;14.13;7.67;;;;;;;10.96;40.42;93637.78;4915625;29;20040;-70
2021/12/03 08:18:20;;;;;;;15.82;8.70;;;;;;;10.62;39.23;93638.84;4916340;29;20040;-70
2021/12/03 08:20:48;;;;;;;12.27;7.50;;;;;;;10.44;37.83;93641.94;4916214;29;20055;-70
2021/12/03 08:23:15;;;;;;;11.23;6.82;;;;;;;10.87;38.11;93638.38;4915241;29;20048;-71
2021/12/03 08:25:41;;;;;;;10.90;6.63;;;;;;;11.66;35.52;93630.34;4916072;29;20040;-68
2021/12/03 08:28:09;;;;;;;9.30;5.30;;;;;;;12.05;34.87;93617.63;4915325;29;20059;-68
2021/12/03 08:30:36;;;;;;;6.60;4.30;;;;;;;13.48;32.38;93623.84;4916257;29;20048;-68
2021/12/03 08:33:03;;;;;;;5.28;3.63;;;;;;;13.83;31.24;93624.69;4914989;29;20066;-69
2021/12/03 08:35:29;;;;;;;6.32;4.20;;;;;;;13.82;29.94;93636.16;4916007;29;20048;-69
2021/12/03 08:37:57;;;;;;;12.18;6.38;;;;;;;13.15;31.93;93646.81;4914846;29;20059;-68
2021/12/03 08:40:24;;;;;;;12.10;6.80;;;;;;;13.52;29.38;93641.03;4915942;29;20040;-69
2021/12/03 08:42:52;;;;;;;7.13;4.63;;;;;;;13.89;29.73;93641.47;4915372;29;20055;-68
2021/12/03 08:45:20;;;;;;;6.25;4.03;;;;;;;13.14;30.41;93634.28;4915393;29;20066;-69
2021/12/03 08:47:52;;;;;;;6.07;3.67;;;;;;;12.72;31.28;93636.28;4915716;29;20048;-69
2021/12/03 08:50:30;;;;;;;6.07;3.17;;;;;;;13.84;29.41;93631.75;4914392;29;20646;-69
2021/12/03 08:56:04;;;;;;;4.50;3.05;;;;;;;11.62;31.91;93640.66;4912170;29;20055;-70
2021/12/03 08:58:32;;;;;;;4.45;2.60;;;;;;;9.98;34.84;93641.59;4913041;29;20044;-68
2021/12/03 09:00:58;;;;;;;4.35;2.90;;;;;;;11.09;33.45;93644.19;4913231;29;20052;-69
2021/12/03 09:03:26;;;;;;;5.35;2.85;;;;;;;10.58;33.26;93647.19;4913987;29;20044;-69
2021/12/03 09:05:53;;;;;;;4.90;2.87;;;;;;;8.57;36.86;93639.34;4914912;29;20074;-69
2021/12/03 09:08:20;;;;;;;5.05;2.92;;;;;;;7.26;39.73;93645.63;4913290;29;20049;-69
2021/12/03 09:10:47;;;;;;;5.03;3.25;;;;;;;9.39;36.81;93636.66;4915584;29;20044;-69
2021/12/03 09:13:13;;;;;;;5.30;3.20;;;;;;;9.83;35.13;93634.03;4914583;29;20379;-69
2021/12/03 09:15:46;;;;;;;4.75;2.83;;;;;;;9.06;36.06;93632.88;4929625;29;20069;-69
2021/12/03 09:21:28;;;;;;;6.00;3.40;;;;;;;9.73;35.18;93636.50;4892223;29;20755;-69
2021/12/03 09:24:13;;;;;;;7.10;3.47;;;;;;;10.50;35.51;93632.06;4892549;29;20111;-69
2021/12/03 09:26:42;;;;;;;4.65;2.63;;;;;;;11.01;33.38;93648.28;4908081;29;20508;-69
2021/12/03 09:29:12;;;;;;;7.85;3.38;;;;;;;11.63;33.26;93648.47;4914305;29;20048;-69
2021/12/03 09:31:42;;;;;;;10.37;4.23;;;;;;;12.12;31.68;93648.47;4915220;29;20493;-69
2021/12/03 09:34:11;;;;;;;10.85;4.85;;;;;;;12.41;30.36;93652.44;4914161;29;20127;-69
2021/12/03 09:36:42;;;;;;;5.22;3.08;;;;;;;10.86;33.66;93650.53;4914983;29;20044;-69
2021/12/03 09:39:15;;;;;;;7.68;3.60;;;;;;;12.15;31.17;93653.13;4913883;29;20074;-69
2021/12/03 09:41:42;;;;;;;7.68;3.33;;;;;;;10.06;33.67;93646.94;4914816;29;20044;-69
2021/12/03 09:44:08;;;;;;;10.50;6.23;;;;;;;12.30;30.57;93650.00;4913749;29;20055;-69
2021/12/03 09:46:35;;;;;;;5.13;2.83;;;;;;;11.40;32.44;93661.13;4902676;29;20413;-69
2021/12/03 09:52:25;;;;;;;5.22;2.97;;;;;;;10.20;34.16;93658.44;4895667;29;20053;-69
2021/12/03 09:54:36;;;;;;;5.22;2.60;;;;;;;10.34;34.50;93645.66;4895051;29;20058;-69
2021/12/03 09:57:10;;;;;;;6.37;3.43;;;;;;;11.32;32.74;93648.00;4895161;29;20520;-70
2021/12/03 10:06:11;;;;;;;8.68;4.00;;;;;;;8.89;37.29;93640.13;4894410;29;20057;-69
2021/12/03 10:13:37;;;;;;;8.48;3.70;;;;;;;9.87;35.48;93627.28;4888365;29;20865;-69
2021/12/03 10:18:54;;;;;;;10.43;4.10;;;;;;;9.53;34.36;93652.13;4895297;29;20044;-69
2021/12/03 10:21:58;;;;;;;6.25;3.10;;;;;;;9.32;35.20;93648.50;4894034;29;20282;-69
2021/12/03 10:30:08;;;;;;;6.50;3.20;;;;;;;11.79;31.47;93647.66;4894784;29;20051;-69
2021/12/03 10:33:11;;;;;;;7.18;3.30;;;;;;;10.66;32.48;93639.56;4894161;29;21592;-69
2021/12/03 10:35:51;;;;;;;6.68;2.92;;;;;;;11.40;32.26;93636.41;4893786;29;21658;-69
2021/12/03 11:25:49;;;;;;;6.07;2.97;;;;;;;11.33;31.92;93606.38;4912176;29;20769;-70
2021/12/03 11:33:53;;;;;;;6.60;3.50;;;;;;;11.17;33.35;93601.63;4912233;29;20903;-70
2021/12/03 11:49:04;;;;;;;11.47;5.80;;;;;;;11.50;32.86;93603.63;4897101;29;20069;-68
2021/12/03 12:48:15;;;;;;;19.30;7.47;;;;;;;3.11;51.45;93525.63;4907334;29;20862;-69
2021/12/03 13:21:29;;;;;;;26.33;11.70;;;;;;;2.04;59.10;93528.19;4915226;29;20052;-69
2021/12/03 14:13:49;;;;;;;7.13;3.38;;;;;;;0.02;70.09;93504.91;4908317;29;20655;-70
2021/12/03 14:56:44;;;;;;;17.35;6.32;;;;;;;-0.78;73.82;93509.16;4894577;29;20048;-69
2021/12/03 14:59:28;;;;;;;10.13;4.25;;;;;;;-0.92;74.09;93506.94;4894063;29;20064;-69
2021/12/03 15:02:46;;;;;;;13.95;5.60;;;;;;;-0.83;74.46;93515.59;4894362;29;20064;-69
2021/12/03 15:07:44;;;;;;;11.75;5.03;;;;;;;-0.95;74.65;93505.72;4891660;29;20049;-70
2021/12/03 15:10:20;;;;;;;11.73;5.20;;;;;;;-1.00;74.69;93500.63;4894285;29;20141;-69
2021/12/03 15:23:15;;;;;;;12.50;4.45;;;;;;;-0.93;74.48;93494.59;4893839;29;20053;-69
2021/12/03 16:03:34;;;;;;;13.10;5.03;;;;;;;-1.51;76.49;93482.59;4912459;29;20048;-70
2021/12/03 16:04:54;;;;;;;13.13;5.40;;;;;;;-1.63;77.03;93478.09;4912640;29;20122;-70
2021/12/03 16:10:20;;;;;;;12.73;6.05;;;;;;;-1.60;77.20;93476.59;4912032;29;20051;-70
2021/12/03 16:15:34;;;;;;;12.93;6.22;;;;;;;-1.61;77.49;93478.53;4912623;29;20054;-70
2021/12/03 16:53:29;;;;;;;15.50;7.60;;;;;;;-1.34;78.54;93464.50;4896555;29;20044;-70
2021/12/03 16:56:17;;;;;;;16.20;7.28;;;;;;;-1.37;78.37;93451.72;4896628;29;20052;-69
2021/12/03 16:58:44;;;;;;;19.83;8.40;;;;;;;-1.47;78.53;93447.66;4896627;29;20482;-69
2021/12/03 17:47:29;;;;;;;37.67;15.60;;;;;;;-1.43;79.28;93408.16;4911795;29;20040;-69
2021/12/03 17:50:11;;;;;;;50.25;21.25;;;;;;;-1.51;79.10;93407.25;4914081;29;20056;-68
2021/12/03 17:58:07;;;;;;;30.90;15.65;;;;;;;-1.30;78.76;93374.59;4914345;29;20040;-69
2021/12/03 18:00:47;;;;;;;19.10;9.97;;;;;;;-1.42;79.04;93380.91;4913494;29;21475;-70
2021/12/03 18:04:04;;;;;;;16.27;7.68;;;;;;;-1.49;78.41;93379.97;4914055;29;20040;-69
2021/12/03 18:11:28;;;;;;;27.02;11.07;;;;;;;-1.50;78.67;93373.81;4913824;29;20044;-69
2021/12/03 18:14:11;;;;;;;16.23;9.83;;;;;;;-1.49;78.38;93369.19;4913885;29;20047;-69
2021/12/03 18:16:59;;;;;;;17.52;9.38;;;;;;;-1.50;78.40;93362.28;4913228;29;20647;-69
2021/12/03 18:51:36;;;;;;;12.07;6.45;;;;;;;-1.64;78.78;93314.31;4893639;29;20044;-69
2021/12/03 18:56:53;;;;;;;31.02;9.38;;;;;;;-1.57;78.55;93319.84;4893904;29;20055;-69
2021/12/03 18:59:23;;;;;;;14.80;7.57;;;;;;;-1.61;78.95;93306.31;4893745;29;21988;-69
2021/12/03 19:01:51;;;;;;;16.33;8.27;;;;;;;-1.55;78.80;93317.59;4894124;29;20891;-70
2021/12/03 19:04:22;;;;;;;14.23;7.20;;;;;;;-1.56;78.86;93307.94;4893809;29;20617;-69
2021/12/03 19:09:31;;;;;;;18.02;7.43;;;;;;;-1.64;79.02;93308.94;4894491;29;20045;-69
2021/12/03 19:12:08;;;;;;;14.55;6.80;;;;;;;-1.60;78.87;93301.72;4894117;29;20405;-69
2021/12/03 19:14:43;;;;;;;13.82;6.72;;;;;;;-1.48;78.43;93290.03;4894400;29;20044;-69